TimeCDT,TemperatureF,Dew PointF,Humidity,Sea Level PressureIn,VisibilityMPH,Wind Direction,Wind SpeedMPH,Gust SpeedMPH,PrecipitationIn,Events,Conditions,WindDirDegrees,DateUTC
12:54 AM,77.0,66.9,71,30.00,10.0,East,3.5,-,N/A,,Clear,100,2013-08-02 05:54:00
1:54 AM,72.0,66.9,84,29.99,10.0,Calm,Calm,-,N/A,,Clear,0,2013-08-02 06:54:00
2:54 AM,73.9,66.9,79,29.98,10.0,NNE,3.5,-,N/A,,Clear,20,2013-08-02 07:54:00
3:54 AM,75.0,66.9,76,29.98,10.0,SSE,3.5,-,N/A,,Partly Cloudy,150,2013-08-02 08:54:00
4:54 AM,73.0,66.9,81,29.99,10.0,NE,4.6,-,N/A,,Partly Cloudy,50,2013-08-02 09:54:00
5:54 AM,72.0,66.0,81,29.99,10.0,Calm,Calm,-,N/A,,Scattered Clouds,0,2013-08-02 10:54:00
6:54 AM,73.0,66.9,81,30.01,10.0,Calm,Calm,-,N/A,,Scattered Clouds,0,2013-08-02 11:54:00
7:54 AM,75.9,66.0,71,30.01,10.0,SSE,5.8,-,N/A,,Scattered Clouds,150,2013-08-02 12:54:00
8:54 AM,79.0,66.0,64,30.02,10.0,SSE,6.9,-,N/A,,Scattered Clouds,150,2013-08-02 13:54:00
9:54 AM,82.0,66.0,58,30.02,10.0,SE,9.2,-,N/A,,Scattered Clouds,140,2013-08-02 14:54:00
10:54 AM,82.0,64.9,56,30.02,10.0,SSE,6.9,-,N/A,,Mostly Cloudy,160,2013-08-02 15:54:00
11:54 AM,84.9,66.0,53,30.03,10.0,Variable,3.5,-,N/A,,Mostly Cloudy,0,2013-08-02 16:54:00
12:54 PM,87.1,68.0,53,30.02,10.0,SSW,5.8,-,N/A,,Mostly Cloudy,210,2013-08-02 17:54:00
1:34 PM,87.8,66.2,49,30.02,10.0,South,6.9,-,N/A,,Mostly Cloudy,180,2013-08-02 18:34:00
1:54 PM,88.0,66.0,48,30.00,10.0,SSW,4.6,-,N/A,,Mostly Cloudy,210,2013-08-02 18:54:00
2:54 PM,89.1,63.0,42,29.98,10.0,SSE,4.6,-,N/A,,Mostly Cloudy,160,2013-08-02 19:54:00
3:54 PM,88.0,66.0,48,29.98,10.0,SSW,5.8,-,N/A,,Mostly Cloudy,200,2013-08-02 20:54:00
4:54 PM,88.0,64.9,46,29.97,10.0,South,4.6,-,N/A,,Mostly Cloudy,170,2013-08-02 21:54:00
5:54 PM,88.0,68.0,51,29.96,10.0,SW,5.8,-,N/A,,Mostly Cloudy,220,2013-08-02 22:54:00
6:54 PM,86.0,68.0,55,29.96,10.0,South,6.9,-,N/A,,Mostly Cloudy,180,2013-08-02 23:54:00
7:54 PM,82.9,69.1,63,29.96,10.0,South,5.8,-,N/A,,Mostly Cloudy,190,2013-08-03 00:54:00
8:54 PM,81.0,69.1,67,29.97,10.0,South,5.8,-,N/A,,Scattered Clouds,170,2013-08-03 01:54:00
9:54 PM,81.0,69.1,67,29.98,10.0,South,5.8,-,N/A,,Scattered Clouds,180,2013-08-03 02:54:00
10:54 PM,81.0,68.0,65,29.97,10.0,SSE,5.8,-,N/A,,Scattered Clouds,150,2013-08-03 03:54:00
11:54 PM,79.0,68.0,69,29.97,10.0,South,5.8,-,N/A,,Scattered Clouds,180,2013-08-03 04:54:00